WMT6YX LRSB-LIRF
Flight info
| Callsign | WMT6YX |
|---|---|
| Flight time | N/A |
| Altitude | 38000 |
| Route | ULMIN DCT TIXIP DCT DIRER DCT KATTI DCT MOPUV |
| Aircraft | A320/M-SDE1E2E3FGIJ1J4RWXY/LB1 |
Departure
| Time | N/A |
|---|---|
| Airport | Sibiu International Airport (LRSB) |
Arrival
| Time | 2026-05-03 20:27 |
|---|---|
| Airport | Rome–Fiumicino Leonardo da Vinci International Airport (LIRF) |
| Time | Latitude | Longitude | Altitude | Speed | Heading |
|---|---|---|---|---|---|
| 2026-05-03 20:15 | 41.91382 | 12.45518 | 8620 ft | 263 kts | 343° |
| 2026-05-03 20:15 | 41.93115 | 12.44818 | 8388 ft | 264 kts | 343° |
| 2026-05-03 20:15 | 41.94886 | 12.44091 | 8152 ft | 262 kts | 343° |
| 2026-05-03 20:15 | 41.96625 | 12.43367 | 7921 ft | 261 kts | 343° |
| 2026-05-03 20:16 | 41.98360 | 12.42644 | 7694 ft | 261 kts | 343° |
| 2026-05-03 20:16 | 42.00094 | 12.41922 | 7457 ft | 261 kts | 343° |
| 2026-05-03 20:16 | 42.01827 | 12.41201 | 7229 ft | 260 kts | 343° |
| 2026-05-03 20:16 | 42.03529 | 12.40492 | 7003 ft | 260 kts | 343° |
| 2026-05-03 20:17 | 42.05286 | 12.39757 | 6771 ft | 261 kts | 343° |
| 2026-05-03 20:17 | 42.07000 | 12.39038 | 6493 ft | 263 kts | 343° |
| 2026-05-03 20:17 | 42.08751 | 12.38306 | 6165 ft | 263 kts | 343° |
| 2026-05-03 20:17 | 42.10394 | 12.37328 | 5970 ft | 254 kts | 324° |
| 2026-05-03 20:18 | 42.11615 | 12.35675 | 5695 ft | 247 kts | 302° |
| 2026-05-03 20:18 | 42.12286 | 12.33585 | 5464 ft | 243 kts | 282° |
| 2026-05-03 20:18 | 42.12689 | 12.31397 | 5236 ft | 238 kts | 283° |
| 2026-05-03 20:18 | 42.13092 | 12.29253 | 5014 ft | 234 kts | 283° |
| 2026-05-03 20:19 | 42.13492 | 12.27149 | 4799 ft | 230 kts | 283° |
| 2026-05-03 20:19 | 42.13886 | 12.25084 | 4579 ft | 226 kts | 283° |
| 2026-05-03 20:19 | 42.14265 | 12.23048 | 4358 ft | 223 kts | 279° |
| 2026-05-03 20:19 | 42.14206 | 12.21014 | 4170 ft | 216 kts | 249° |
| 2026-05-03 20:20 | 42.13438 | 12.19330 | 3963 ft | 211 kts | 221° |
| 2026-05-03 20:20 | 42.12181 | 12.18365 | 3830 ft | 209 kts | 194° |
| 2026-05-03 20:20 | 42.10777 | 12.17942 | 3638 ft | 204 kts | 192° |
| 2026-05-03 20:20 | 42.09408 | 12.17539 | 3448 ft | 199 kts | 192° |
| 2026-05-03 20:21 | 42.08068 | 12.17142 | 3261 ft | 196 kts | 192° |
| 2026-05-03 20:21 | 42.06716 | 12.17012 | 3151 ft | 195 kts | 176° |
| 2026-05-03 20:21 | 42.05388 | 12.17403 | 3101 ft | 196 kts | 164° |
| 2026-05-03 20:21 | 42.04085 | 12.17952 | 3110 ft | 196 kts | 163° |
| 2026-05-03 20:22 | 42.02780 | 12.18506 | 3120 ft | 197 kts | 163° |
| 2026-05-03 20:22 | 42.01474 | 12.19058 | 3013 ft | 197 kts | 163° |
| 2026-05-03 20:22 | 42.00170 | 12.19607 | 3013 ft | 197 kts | 163° |
| 2026-05-03 20:22 | 41.98882 | 12.20150 | 2914 ft | 189 kts | 163° |
| 2026-05-03 20:23 | 41.97649 | 12.20669 | 2688 ft | 183 kts | 164° |
| 2026-05-03 20:23 | 41.96453 | 12.21172 | 2452 ft | 178 kts | 164° |
| 2026-05-03 20:23 | 41.95295 | 12.21659 | 2212 ft | 170 kts | 164° |
| 2026-05-03 20:23 | 41.94208 | 12.22116 | 1997 ft | 158 kts | 165° |
| 2026-05-03 20:24 | 41.93181 | 12.22547 | 1783 ft | 152 kts | 165° |
| 2026-05-03 20:24 | 41.92198 | 12.22960 | 1597 ft | 146 kts | 165° |
| 2026-05-03 20:24 | 41.91240 | 12.23362 | 1401 ft | 143 kts | 165° |
| 2026-05-03 20:24 | 41.90293 | 12.23759 | 1202 ft | 143 kts | 165° |
| 2026-05-03 20:25 | 41.89347 | 12.24156 | 1016 ft | 142 kts | 165° |
| 2026-05-03 20:25 | 41.88409 | 12.24550 | 829 ft | 141 kts | 165° |
| 2026-05-03 20:25 | 41.87475 | 12.24942 | 656 ft | 141 kts | 165° |
| 2026-05-03 20:25 | 41.86546 | 12.25332 | 484 ft | 140 kts | 164° |
| 2026-05-03 20:26 | 41.85617 | 12.25726 | 295 ft | 140 kts | 164° |
| 2026-05-03 20:26 | 41.84690 | 12.26113 | 99 ft | 139 kts | 165° |
| 2026-05-03 20:26 | 41.83800 | 12.26483 | 18 ft | 120 kts | 163° |
| 2026-05-03 20:26 | 41.83163 | 12.26749 | 10 ft | 71 kts | 162° |
| 2026-05-03 20:27 | 41.82851 | 12.26863 | 13 ft | 27 kts | 172° |
| 2026-05-03 20:27 | 41.82671 | 12.26859 | 11 ft | 14 kts | 191° |
| 2026-05-03 20:27 | 41.82565 | 12.26827 | 11 ft | 17 kts | 193° |
| 2026-05-03 20:27 | 41.82443 | 12.26791 | 11 ft | 19 kts | 192° |
| 2026-05-03 20:28 | 41.82309 | 12.26787 | 12 ft | 21 kts | 168° |
| 2026-05-03 20:28 | 41.82176 | 12.26840 | 12 ft | 19 kts | 163° |
| 2026-05-03 20:28 | 41.82041 | 12.26896 | 11 ft | 22 kts | 162° |
| 2026-05-03 20:28 | 41.81887 | 12.26960 | 12 ft | 24 kts | 163° |
| 2026-05-03 20:29 | 41.81718 | 12.27031 | 12 ft | 27 kts | 162° |
| 2026-05-03 20:29 | 41.81576 | 12.27090 | 12 ft | 16 kts | 162° |
| 2026-05-03 20:29 | 41.81463 | 12.27138 | 12 ft | 19 kts | 162° |
| 2026-05-03 20:29 | 41.81330 | 12.27193 | 13 ft | 21 kts | 163° |
| 2026-05-03 20:30 | 41.81179 | 12.27255 | 12 ft | 24 kts | 163° |
| 2026-05-03 20:30 | 41.81052 | 12.27309 | 12 ft | 15 kts | 162° |
| 2026-05-03 20:30 | 41.80938 | 12.27350 | 14 ft | 18 kts | 175° |
| 2026-05-03 20:30 | 41.80829 | 12.27332 | 12 ft | 16 kts | 189° |
| 2026-05-03 20:31 | 41.80711 | 12.27297 | 12 ft | 19 kts | 203° |
| 2026-05-03 20:31 | 41.80645 | 12.27186 | 14 ft | 13 kts | 250° |
| 2026-05-03 20:31 | 41.80611 | 12.27059 | 14 ft | 16 kts | 250° |
| 2026-05-03 20:31 | 41.80570 | 12.26908 | 15 ft | 19 kts | 249° |
| 2026-05-03 20:32 | 41.80521 | 12.26735 | 14 ft | 21 kts | 250° |
| 2026-05-03 20:32 | 41.80471 | 12.26543 | 16 ft | 23 kts | 249° |
| 2026-05-03 20:32 | 41.80436 | 12.26425 | 15 ft | 7 kts | 248° |
| 2026-05-03 20:32 | 41.80404 | 12.26362 | 15 ft | 10 kts | 206° |
| 2026-05-03 20:33 | 41.80335 | 12.26375 | 15 ft | 10 kts | 160° |
| 2026-05-03 20:33 | 41.80256 | 12.26408 | 16 ft | 13 kts | 171° |
| 2026-05-03 20:33 | 41.80160 | 12.26373 | 14 ft | 15 kts | 205° |
| 2026-05-03 20:33 | 41.80080 | 12.26323 | 14 ft | 14 kts | 205° |
| 2026-05-03 20:34 | 41.79980 | 12.26261 | 14 ft | 17 kts | 205° |
| 2026-05-03 20:34 | 41.79863 | 12.26187 | 15 ft | 17 kts | 205° |
| 2026-05-03 20:34 | 41.79776 | 12.26127 | 15 ft | 12 kts | 220° |
| 2026-05-03 20:34 | 41.79775 | 12.26042 | 14 ft | 11 kts | 294° |
| 2026-05-03 20:35 | 41.79812 | 12.25939 | 14 ft | 14 kts | 295° |
| 2026-05-03 20:35 | 41.79831 | 12.25843 | 14 ft | 7 kts | 244° |
| 2026-05-03 20:35 | 41.79778 | 12.25806 | 16 ft | 10 kts | 204° |
| 2026-05-03 20:35 | 41.79724 | 12.25772 | 14 ft | 7 kts | 205° |
| 2026-05-03 20:36 | 41.79689 | 12.25767 | 14 ft | 6 kts | 154° |
| 2026-05-03 20:36 | 41.79674 | 12.25802 | 14 ft | 3 kts | 111° |
| 2026-05-03 20:36 | 41.79671 | 12.25812 | 14 ft | 1 kts | 115° |
| 2026-05-03 20:36 | 41.79668 | 12.25820 | 14 ft | 0 kts | 115° |
| 2026-05-03 20:37 | 41.79668 | 12.25822 | 14 ft | 0 kts | 115° |